Time;durP1;ratioP1;P1;durP2;ratioP2;P2;SDS_P1;SDS_P2;PMS_P1;PMS_P2;Temp;Humidity;BMP_temperature;BMP_pressure;BME280_temperature;BME280_humidity;BME280_pressure;Samples;Min_cycle;Max_cycle;Signal;HPM_P1;HPM_P2
2022/01/09 00:00:25;;;;;;;2.97;1.60;;;17.80;55.10;;;;;;5003675;28;20033;-68
2022/01/09 00:02:51;;;;;;;3.38;1.70;;;17.80;55.00;;;;;;4980759;28;20113;-68
2022/01/09 00:05:16;;;;;;;2.83;1.40;;;17.80;55.00;;;;;;4995030;28;20121;-67
2022/01/09 00:07:42;;;;;;;4.90;1.58;;;17.80;55.00;;;;;;4996032;28;20555;-68
2022/01/09 00:10:08;;;;;;;2.90;1.38;;;17.80;55.10;;;;;;4993329;28;20030;-67
2022/01/09 00:12:35;;;;;;;4.70;1.83;;;17.80;55.00;;;;;;4989944;28;20026;-67
2022/01/09 00:15:01;;;;;;;3.60;1.65;;;17.80;55.00;;;;;;4990000;28;20121;-68
2022/01/09 00:17:26;;;;;;;1.58;1.25;;;17.80;55.00;;;;;;5003033;28;20628;-68
2022/01/09 00:19:52;;;;;;;2.30;1.27;;;17.80;55.00;;;;;;4998499;28;20502;-68
2022/01/09 00:22:22;;;;;;;4.18;1.30;;;17.80;55.00;;;;;;4993907;28;20030;-68
2022/01/09 00:24:47;;;;;;;4.68;1.50;;;17.80;55.00;;;;;;5000490;28;20034;-68
2022/01/09 00:27:13;;;;;;;2.47;1.30;;;17.80;55.10;;;;;;5000810;28;20041;-67
2022/01/09 00:29:38;;;;;;;2.30;1.48;;;17.80;55.10;;;;;;4988391;28;20030;-69
2022/01/09 00:32:04;;;;;;;3.25;1.30;;;17.80;55.10;;;;;;4998061;28;20029;-68
2022/01/09 00:34:30;;;;;;;2.50;1.13;;;17.80;55.10;;;;;;4991777;28;20637;-67
2022/01/09 00:36:55;;;;;;;2.33;1.15;;;17.80;55.00;;;;;;4988142;28;20028;-67
2022/01/09 00:39:21;;;;;;;2.53;1.40;;;17.80;55.00;;;;;;4990095;28;20109;-67
2022/01/09 00:41:47;;;;;;;2.50;1.52;;;17.80;55.20;;;;;;4990572;28;20147;-68
2022/01/09 00:44:12;;;;;;;2.40;1.60;;;17.70;55.30;;;;;;4985308;28;20729;-67
2022/01/09 00:46:38;;;;;;;4.72;1.70;;;17.70;55.50;;;;;;5006133;28;20026;-68
2022/01/09 00:49:03;;;;;;;2.00;1.15;;;17.70;55.50;;;;;;4986830;28;20021;-67
2022/01/09 00:51:29;;;;;;;2.10;1.33;;;17.70;55.60;;;;;;4976829;28;20055;-67
2022/01/09 00:53:55;;;;;;;1.75;1.10;;;17.70;55.60;;;;;;4989559;28;20054;-67
2022/01/09 00:56:20;;;;;;;1.92;1.30;;;17.70;55.60;;;;;;5001647;28;20042;-67
2022/01/09 00:58:46;;;;;;;2.15;0.88;;;17.70;55.80;;;;;;4986026;28;20049;-68
2022/01/09 01:01:11;;;;;;;2.70;1.30;;;17.60;55.70;;;;;;4998544;28;20018;-67
2022/01/09 01:03:36;;;;;;;2.47;1.10;;;17.60;55.80;;;;;;4978577;28;20033;-66
2022/01/09 01:06:02;;;;;;;1.55;1.10;;;17.60;55.80;;;;;;4993284;28;20026;-65
2022/01/09 01:08:27;;;;;;;2.15;1.13;;;17.60;55.90;;;;;;4998317;28;20026;-63
2022/01/09 01:10:53;;;;;;;3.22;1.67;;;17.60;56.00;;;;;;4999088;28;20041;-64
2022/01/09 01:13:18;;;;;;;2.40;1.10;;;17.60;56.00;;;;;;4986406;28;20037;-67
2022/01/09 01:15:44;;;;;;;2.10;1.50;;;17.60;56.00;;;;;;4997030;28;20038;-68
2022/01/09 01:18:09;;;;;;;2.40;1.20;;;17.60;56.10;;;;;;4980923;28;20061;-66
2022/01/09 01:20:35;;;;;;;3.00;1.17;;;17.60;56.10;;;;;;5003795;28;20037;-67
2022/01/09 01:23:00;;;;;;;1.45;1.05;;;17.60;56.10;;;;;;4994182;28;20485;-66
2022/01/09 01:25:26;;;;;;;2.10;1.20;;;17.60;56.10;;;;;;4992172;28;20034;-66
2022/01/09 01:27:52;;;;;;;2.05;1.40;;;17.60;56.20;;;;;;5000747;28;20033;-67
2022/01/09 01:30:17;;;;;;;1.33;0.82;;;17.60;56.20;;;;;;4994644;28;20029;-68
2022/01/09 01:32:43;;;;;;;2.83;1.25;;;17.60;56.20;;;;;;5001231;28;20080;-67
2022/01/09 01:35:09;;;;;;;1.80;1.20;;;17.60;56.20;;;;;;4992570;28;20193;-67
2022/01/09 01:37:38;;;;;;;2.30;1.38;;;17.70;56.30;;;;;;4995382;28;20029;-67
2022/01/09 01:40:11;;;;;;;2.10;1.27;;;17.70;56.30;;;;;;5001628;28;20030;-66
2022/01/09 01:42:36;;;;;;;1.33;1.20;;;17.70;56.20;;;;;;4993004;28;20129;-67
2022/01/09 01:45:02;;;;;;;1.63;1.02;;;17.60;56.00;;;;;;4989379;28;20121;-67
2022/01/09 01:47:28;;;;;;;1.70;1.00;;;17.60;56.30;;;;;;4994771;28;20650;-67
2022/01/09 01:49:53;;;;;;;2.30;1.00;;;17.60;56.30;;;;;;4987153;28;20033;-65
2022/01/09 01:52:27;;;;;;;2.08;0.98;;;17.70;56.30;;;;;;5000625;28;20034;-68
2022/01/09 01:54:53;;;;;;;1.75;1.20;;;17.60;56.20;;;;;;5004079;28;20038;-68
2022/01/09 01:57:18;;;;;;;1.65;0.82;;;17.60;56.30;;;;;;5002674;28;20423;-67
2022/01/09 01:59:44;;;;;;;1.52;1.00;;;17.70;56.40;;;;;;4994637;28;20058;-66
2022/01/09 02:02:09;;;;;;;1.60;1.10;;;17.70;56.50;;;;;;4990091;28;20033;-67
2022/01/09 02:04:35;;;;;;;1.77;0.93;;;17.70;56.30;;;;;;4985579;28;20026;-67
2022/01/09 02:07:01;;;;;;;1.17;0.85;;;17.70;56.40;;;;;;4985449;28;20023;-67
2022/01/09 02:09:27;;;;;;;1.30;0.90;;;17.70;56.30;;;;;;4962592;28;20046;-67
2022/01/09 02:11:52;;;;;;;2.40;1.13;;;17.60;56.40;;;;;;4999939;28;20169;-67
2022/01/09 02:14:18;;;;;;;1.73;0.90;;;17.60;56.40;;;;;;4986800;28;20377;-67
2022/01/09 02:16:44;;;;;;;2.05;0.70;;;17.60;56.50;;;;;;5000502;28;20014;-67
2022/01/09 02:19:13;;;;;;;1.17;0.77;;;17.60;56.60;;;;;;4989546;28;20021;-68
2022/01/09 02:21:44;;;;;;;2.10;0.90;;;17.50;56.50;;;;;;4994191;28;20049;-67
2022/01/09 02:24:10;;;;;;;2.60;0.98;;;17.50;56.50;;;;;;4977940;28;20509;-68
2022/01/09 02:26:36;;;;;;;1.13;0.90;;;17.50;57.20;;;;;;4991244;28;20037;-69
2022/01/09 02:29:01;;;;;;;2.15;0.70;;;17.40;56.60;;;;;;4998906;28;20038;-66
2022/01/09 02:31:27;;;;;;;1.55;1.10;;;17.40;56.50;;;;;;5004888;28;20034;-69
2022/01/09 02:33:52;;;;;;;1.73;0.80;;;17.40;56.50;;;;;;4992839;28;20489;-69
2022/01/09 02:36:17;;;;;;;1.65;0.80;;;17.40;56.60;;;;;;5003755;28;20029;-67
2022/01/09 02:38:43;;;;;;;1.33;0.82;;;17.30;56.50;;;;;;4987862;28;20037;-67
2022/01/09 02:41:09;;;;;;;2.03;0.90;;;17.30;56.60;;;;;;4994333;28;20478;-67
2022/01/09 02:43:34;;;;;;;1.45;1.00;;;17.30;56.60;;;;;;4995189;28;20072;-68
2022/01/09 02:46:23;;;;;;;2.08;1.23;;;17.30;56.60;;;;;;5001681;28;20053;-69
2022/01/09 02:48:50;;;;;;;2.88;0.80;;;17.20;56.50;;;;;;4984838;28;20053;-69
2022/01/09 02:51:17;;;;;;;1.17;0.70;;;17.20;56.50;;;;;;4992625;28;20035;-68
2022/01/09 02:53:46;;;;;;;1.73;0.93;;;17.20;56.60;;;;;;4995465;28;20037;-68
2022/01/09 02:56:12;;;;;;;1.00;0.85;;;17.20;56.60;;;;;;4985791;28;20027;-68
2022/01/09 02:58:37;;;;;;;0.65;0.52;;;17.20;56.50;;;;;;4995371;28;20391;-68
2022/01/09 03:01:07;;;;;;;1.55;0.80;;;17.20;56.40;;;;;;5001570;28;20052;-68
2022/01/09 03:03:33;;;;;;;1.50;0.80;;;17.20;56.40;;;;;;4984403;28;20033;-68
2022/01/09 03:05:58;;;;;;;1.92;1.13;;;17.20;56.40;;;;;;4991468;28;20114;-67
2022/01/09 03:08:24;;;;;;;1.50;1.20;;;17.20;56.40;;;;;;4995467;28;20030;-65
2022/01/09 03:10:49;;;;;;;1.27;0.82;;;17.20;56.30;;;;;;5004231;28;20037;-66
2022/01/09 03:13:15;;;;;;;1.30;0.70;;;17.10;56.30;;;;;;4984557;28;20053;-68
2022/01/09 03:15:40;;;;;;;1.20;0.82;;;17.10;56.30;;;;;;4993286;28;20030;-68
2022/01/09 03:18:06;;;;;;;1.20;0.70;;;17.10;56.30;;;;;;4997642;28;20712;-66
2022/01/09 03:20:31;;;;;;;2.72;0.77;;;17.10;56.30;;;;;;4994503;28;20088;-68
2022/01/09 03:22:57;;;;;;;1.10;0.82;;;17.10;56.30;;;;;;4992932;28;20567;-66
2022/01/09 03:25:23;;;;;;;2.00;0.80;;;17.10;56.40;;;;;;5002739;28;20038;-68
2022/01/09 03:27:49;;;;;;;1.58;0.95;;;17.10;56.40;;;;;;5008239;28;20045;-68
2022/01/09 03:30:15;;;;;;;1.50;1.13;;;17.10;56.40;;;;;;4991114;28;20031;-68
2022/01/09 03:32:41;;;;;;;0.88;0.65;;;17.10;56.40;;;;;;4992745;28;20067;-68
2022/01/09 03:35:08;;;;;;;1.42;0.85;;;17.10;56.40;;;;;;4993636;28;20030;-65
2022/01/09 03:37:33;;;;;;;0.98;0.60;;;17.10;56.40;;;;;;5001302;28;20485;-67
2022/01/09 03:39:59;;;;;;;0.70;0.50;;;17.10;56.30;;;;;;4995336;28;20026;-65
2022/01/09 03:42:24;;;;;;;1.70;0.65;;;17.20;56.10;;;;;;5001640;28;20032;-68
2022/01/09 03:44:50;;;;;;;0.95;0.60;;;17.30;55.80;;;;;;4990725;28;20034;-68
2022/01/09 03:47:15;;;;;;;1.35;0.70;;;17.40;55.60;;;;;;4999188;28;20037;-67
2022/01/09 03:49:41;;;;;;;0.82;0.60;;;17.50;55.40;;;;;;4988018;28;20026;-67
2022/01/09 03:52:07;;;;;;;1.58;0.60;;;17.60;55.20;;;;;;4999707;28;20034;-67
2022/01/09 03:54:32;;;;;;;2.97;0.70;;;17.60;55.10;;;;;;4985736;28;20031;-67
2022/01/09 03:56:58;;;;;;;1.10;0.60;;;17.60;55.00;;;;;;4998599;28;20049;-68
2022/01/09 03:59:23;;;;;;;2.58;0.85;;;17.70;54.90;;;;;;4997758;28;20026;-68
2022/01/09 04:01:49;;;;;;;1.05;0.40;;;17.70;54.90;;;;;;5009702;28;20096;-69
2022/01/09 04:04:14;;;;;;;1.05;0.57;;;17.70;54.90;;;;;;5005276;28;20026;-68
2022/01/09 04:06:45;;;;;;;0.93;0.60;;;17.70;54.90;;;;;;4993761;28;20037;-69
2022/01/09 04:09:18;;;;;;;0.80;0.50;;;17.70;55.00;;;;;;5003134;28;20102;-69
2022/01/09 04:11:44;;;;;;;0.98;0.60;;;17.70;55.00;;;;;;4988511;28;20544;-69
2022/01/09 04:14:10;;;;;;;0.95;0.65;;;17.70;55.00;;;;;;4999094;28;20485;-69
2022/01/09 04:16:35;;;;;;;0.98;0.57;;;17.70;55.00;;;;;;4993710;28;20042;-69
2022/01/09 04:19:01;;;;;;;0.75;0.50;;;17.70;55.10;;;;;;5005181;28;20061;-69
2022/01/09 04:21:26;;;;;;;0.65;0.60;;;17.70;55.10;;;;;;4997227;28;20029;-69
2022/01/09 04:23:52;;;;;;;0.73;0.50;;;17.70;55.20;;;;;;4992573;28;20018;-68
2022/01/09 04:26:18;;;;;;;1.17;0.73;;;17.70;55.20;;;;;;4999840;28;20030;-68
2022/01/09 04:28:44;;;;;;;0.77;0.70;;;17.70;55.20;;;;;;4993389;28;20050;-68
2022/01/09 04:31:09;;;;;;;0.73;0.55;;;17.70;55.20;;;;;;4986758;28;20026;-68
2022/01/09 04:33:35;;;;;;;1.00;0.70;;;17.70;55.20;;;;;;5000006;28;20641;-68
2022/01/09 04:36:00;;;;;;;1.42;0.60;;;17.70;55.30;;;;;;4992316;28;20516;-69
2022/01/09 04:38:26;;;;;;;0.90;0.50;;;17.70;55.30;;;;;;5009329;28;21565;-65
2022/01/09 04:40:51;;;;;;;1.00;0.60;;;17.70;55.20;;;;;;4995138;28;20109;-69
2022/01/09 04:43:18;;;;;;;1.02;0.60;;;17.70;55.30;;;;;;5008613;28;20054;-69
2022/01/09 04:45:43;;;;;;;0.95;0.60;;;17.70;55.30;;;;;;5001491;28;20034;-68
2022/01/09 04:48:11;;;;;;;0.63;0.50;;;17.70;55.20;;;;;;4996280;28;20038;-68
2022/01/09 04:50:38;;;;;;;0.77;0.47;;;17.70;55.20;;;;;;4991230;28;20047;-68
2022/01/09 04:53:06;;;;;;;0.70;0.40;;;17.70;55.20;;;;;;4986861;28;20029;-69
2022/01/09 04:55:42;;;;;;;2.08;0.50;;;17.70;55.20;;;;;;5007842;28;20046;-69
2022/01/09 04:58:09;;;;;;;0.80;0.60;;;17.80;55.20;;;;;;5004470;28;20318;-69
2022/01/09 05:00:35;;;;;;;2.15;0.50;;;17.70;55.00;;;;;;4992826;28;20033;-69
2022/01/09 05:03:00;;;;;;;1.40;0.63;;;17.80;55.00;;;;;;5001400;28;20022;-69
2022/01/09 05:05:26;;;;;;;0.77;0.57;;;17.80;55.00;;;;;;5006104;28;20586;-69
2022/01/09 05:07:51;;;;;;;0.77;0.63;;;17.70;55.10;;;;;;4995104;28;20038;-69
2022/01/09 05:10:17;;;;;;;0.88;0.55;;;17.70;55.00;;;;;;4994908;28;20027;-68
2022/01/09 05:12:42;;;;;;;1.00;0.43;;;17.80;55.10;;;;;;5006133;28;20384;-67
2022/01/09 05:15:08;;;;;;;0.90;0.60;;;17.70;55.10;;;;;;4990289;28;20018;-69
2022/01/09 05:17:34;;;;;;;0.63;0.50;;;17.80;55.10;;;;;;4993044;28;20030;-69
2022/01/09 05:19:59;;;;;;;1.00;0.70;;;17.80;55.00;;;;;;5001379;28;20030;-68
2022/01/09 05:22:25;;;;;;;0.68;0.43;;;17.80;55.10;;;;;;5001940;28;20026;-68
2022/01/09 05:24:52;;;;;;;0.47;0.47;;;17.70;55.10;;;;;;5004205;28;20033;-68
2022/01/09 05:27:18;;;;;;;0.75;0.60;;;17.80;55.10;;;;;;5001313;28;20050;-69
2022/01/09 05:29:43;;;;;;;0.68;0.57;;;17.70;55.00;;;;;;5001635;28;20038;-68
2022/01/09 05:32:09;;;;;;;0.60;0.50;;;17.70;55.00;;;;;;4999577;28;20065;-68
2022/01/09 05:34:35;;;;;;;0.70;0.50;;;17.70;55.00;;;;;;5004322;28;20355;-68
2022/01/09 05:37:00;;;;;;;1.48;0.75;;;17.80;55.10;;;;;;4999046;28;20117;-68
2022/01/09 05:39:26;;;;;;;0.77;0.50;;;17.70;55.00;;;;;;5000289;28;20034;-68
2022/01/09 05:41:51;;;;;;;0.88;0.57;;;17.70;54.90;;;;;;4994654;28;20085;-68
2022/01/09 05:44:18;;;;;;;0.95;0.60;;;17.70;55.00;;;;;;4995313;28;20023;-68
2022/01/09 05:46:44;;;;;;;0.73;0.60;;;17.70;55.00;;;;;;4993897;28;20034;-68
2022/01/09 05:49:09;;;;;;;0.70;0.40;;;17.70;54.90;;;;;;4971213;28;20033;-68
2022/01/09 05:51:35;;;;;;;1.10;0.60;;;17.80;55.00;;;;;;4991746;28;20046;-68
2022/01/09 05:54:00;;;;;;;1.88;0.80;;;17.70;54.90;;;;;;4988477;28;20027;-67
2022/01/09 05:56:26;;;;;;;0.73;0.60;;;17.70;54.90;;;;;;4983350;28;20077;-68
2022/01/09 05:58:51;;;;;;;0.77;0.40;;;17.70;54.90;;;;;;4983993;28;20071;-68
2022/01/09 06:01:17;;;;;;;1.00;0.57;;;17.70;55.00;;;;;;4990806;28;20109;-69
2022/01/09 06:03:42;;;;;;;0.50;0.50;;;17.70;55.00;;;;;;4993797;28;20049;-69
2022/01/09 06:06:08;;;;;;;1.08;0.60;;;17.70;54.90;;;;;;5002006;28;20152;-69
2022/01/09 06:08:33;;;;;;;0.50;0.50;;;17.70;54.90;;;;;;4984094;28;20641;-69
2022/01/09 06:10:59;;;;;;;0.90;0.50;;;17.70;55.00;;;;;;4994382;28;20026;-69
2022/01/09 06:13:24;;;;;;;3.60;0.50;;;17.70;54.90;;;;;;4995553;28;20053;-69
2022/01/09 06:15:50;;;;;;;1.23;0.50;;;17.70;54.90;;;;;;4992844;28;20241;-69
2022/01/09 06:18:18;;;;;;;1.13;0.30;;;17.70;55.50;;;;;;4990737;28;20027;-69
2022/01/09 06:20:44;;;;;;;2.08;0.50;;;17.70;55.00;;;;;;4985214;28;20035;-69
2022/01/09 06:23:09;;;;;;;1.10;0.50;;;17.70;55.10;;;;;;4989172;28;20056;-68
2022/01/09 06:25:35;;;;;;;0.75;0.40;;;17.70;55.00;;;;;;5004435;28;20064;-69
2022/01/09 06:28:00;;;;;;;1.08;0.57;;;17.70;55.00;;;;;;4994226;28;20489;-69
2022/01/09 06:30:26;;;;;;;3.35;0.40;;;17.70;55.00;;;;;;4997068;28;20027;-68
2022/01/09 06:32:51;;;;;;;1.45;0.43;;;17.70;55.00;;;;;;4979649;28;20085;-69
2022/01/09 06:35:17;;;;;;;0.50;0.30;;;17.70;55.00;;;;;;5000394;28;20380;-69
2022/01/09 06:37:43;;;;;;;0.60;0.45;;;17.70;55.00;;;;;;5001679;28;20065;-69
2022/01/09 06:40:09;;;;;;;1.20;0.50;;;17.70;54.90;;;;;;4983612;28;20106;-69
2022/01/09 06:42:34;;;;;;;2.05;0.65;;;17.70;54.90;;;;;;4996758;28;20092;-69
2022/01/09 06:45:00;;;;;;;3.33;0.60;;;17.70;54.90;;;;;;4999764;28;20496;-69
2022/01/09 06:47:26;;;;;;;1.40;0.50;;;17.70;54.90;;;;;;4994269;28;20050;-68
2022/01/09 06:49:51;;;;;;;0.60;0.40;;;17.70;54.90;;;;;;4997100;28;20029;-69
2022/01/09 06:52:17;;;;;;;0.80;0.50;;;17.70;54.90;;;;;;4996632;28;20034;-69
2022/01/09 06:54:42;;;;;;;0.60;0.35;;;17.70;54.90;;;;;;4995382;28;20033;-69
2022/01/09 06:57:08;;;;;;;0.93;0.40;;;17.70;54.90;;;;;;4992008;28;20412;-68
2022/01/09 06:59:33;;;;;;;0.75;0.40;;;17.70;54.90;;;;;;4996170;28;20045;-66
2022/01/09 07:01:59;;;;;;;2.03;0.40;;;17.70;54.80;;;;;;4995161;28;20034;-69
2022/01/09 07:04:24;;;;;;;0.60;0.40;;;17.70;54.80;;;;;;4996655;28;20439;-69
2022/01/09 07:06:50;;;;;;;0.52;0.32;;;17.70;54.80;;;;;;4999012;28;20041;-69
2022/01/09 07:09:15;;;;;;;0.80;0.45;;;17.70;54.70;;;;;;5001489;28;20022;-69
2022/01/09 07:11:41;;;;;;;0.57;0.40;;;17.70;54.90;;;;;;4989286;28;20425;-69
2022/01/09 07:14:06;;;;;;;1.00;0.47;;;17.60;54.80;;;;;;4999616;28;20428;-69
2022/01/09 07:16:32;;;;;;;2.38;0.50;;;17.60;54.70;;;;;;5007152;28;20080;-68
2022/01/09 07:18:57;;;;;;;0.65;0.40;;;17.60;54.70;;;;;;4998530;28;20026;-69
2022/01/09 07:21:23;;;;;;;0.47;0.30;;;17.60;54.70;;;;;;4986246;28;20058;-69
2022/01/09 07:23:48;;;;;;;0.80;0.38;;;17.60;54.70;;;;;;4987395;28;20023;-69
2022/01/09 07:26:14;;;;;;;0.40;0.40;;;17.70;54.80;;;;;;4997117;28;20080;-69
2022/01/09 07:28:39;;;;;;;1.13;0.50;;;17.70;54.70;;;;;;4999260;28;20384;-68
2022/01/09 07:31:05;;;;;;;0.60;0.43;;;17.60;54.70;;;;;;5002964;28;20069;-69
2022/01/09 07:33:31;;;;;;;0.40;0.30;;;17.60;54.60;;;;;;5001287;28;20122;-70
2022/01/09 07:35:56;;;;;;;0.65;0.40;;;17.60;54.60;;;;;;4994955;28;20057;-70
2022/01/09 07:38:22;;;;;;;0.73;0.40;;;17.60;54.60;;;;;;4993850;28;20921;-67
2022/01/09 07:40:47;;;;;;;1.75;0.50;;;17.70;54.60;;;;;;4992149;28;20272;-67
2022/01/09 07:43:13;;;;;;;1.10;0.50;;;17.70;54.60;;;;;;4985484;28;20043;-68
2022/01/09 07:45:39;;;;;;;0.45;0.30;;;17.70;54.60;;;;;;4992970;28;20592;-67
2022/01/09 07:48:06;;;;;;;0.50;0.40;;;17.70;54.70;;;;;;4996926;28;20026;-68
2022/01/09 07:50:31;;;;;;;2.70;0.40;;;17.70;54.80;;;;;;4982380;28;20041;-67
2022/01/09 07:52:57;;;;;;;1.02;0.40;;;17.70;54.80;;;;;;4982862;28;20039;-68
2022/01/09 07:55:22;;;;;;;0.68;0.40;;;17.70;54.80;;;;;;4991534;28;20027;-70
2022/01/09 07:57:48;;;;;;;1.45;0.50;;;17.70;54.80;;;;;;4997582;28;20513;-68
2022/01/09 08:00:14;;;;;;;2.08;0.40;;;17.70;54.90;;;;;;4990221;28;20057;-69
2022/01/09 08:02:41;;;;;;;1.40;0.40;;;17.70;55.60;;;;;;5004406;28;20041;-70
2022/01/09 08:05:07;;;;;;;0.45;0.30;;;17.70;55.60;;;;;;4997773;28;20046;-69
2022/01/09 08:07:32;;;;;;;1.35;0.40;;;17.70;55.60;;;;;;4998777;28;20077;-70
2022/01/09 08:09:58;;;;;;;0.65;0.30;;;17.70;55.80;;;;;;4983919;28;20676;-70
2022/01/09 08:12:23;;;;;;;2.38;0.40;;;17.70;55.90;;;;;;4997619;28;20022;-70
2022/01/09 08:14:49;;;;;;;1.25;0.60;;;17.70;56.00;;;;;;4971444;28;20027;-69
2022/01/09 08:17:14;;;;;;;0.30;0.30;;;17.60;55.90;;;;;;4993345;28;20026;-69
2022/01/09 08:19:40;;;;;;;0.50;0.30;;;17.60;55.90;;;;;;5000050;28;20548;-69
2022/01/09 08:22:05;;;;;;;2.67;0.38;;;17.60;56.50;;;;;;4984534;28;20424;-69
2022/01/09 08:24:32;;;;;;;0.47;0.32;;;17.60;55.80;;;;;;4994440;28;21712;-69
2022/01/09 08:26:57;;;;;;;0.63;0.30;;;17.60;55.80;;;;;;4984088;28;20037;-71
2022/01/09 08:29:23;;;;;;;2.03;0.47;;;17.60;55.70;;;;;;4977682;28;20452;-69
2022/01/09 08:31:48;;;;;;;1.17;0.40;;;17.60;55.60;;;;;;5001264;28;20547;-70
2022/01/09 08:34:14;;;;;;;9.43;0.68;;;17.60;56.10;;;;;;4987368;28;20027;-69
2022/01/09 08:36:39;;;;;;;3.45;0.50;;;17.60;56.40;;;;;;4994724;28;20018;-71
2022/01/09 08:39:05;;;;;;;4.60;1.10;;;17.60;56.60;;;;;;4998174;28;20018;-70
2022/01/09 08:41:32;;;;;;;15.27;2.97;;;17.60;56.70;;;;;;4998958;28;20030;-70
2022/01/09 08:43:57;;;;;;;7.45;2.13;;;17.60;56.60;;;;;;4995061;28;20539;-70
2022/01/09 08:46:23;;;;;;;5.22;2.25;;;17.50;56.60;;;;;;4986646;28;20034;-71
2022/01/09 08:48:49;;;;;;;5.18;1.95;;;17.60;56.70;;;;;;4987169;28;20057;-70
2022/01/09 08:51:14;;;;;;;6.38;2.20;;;17.60;56.70;;;;;;4990563;28;20077;-70
2022/01/09 08:53:41;;;;;;;5.15;2.15;;;17.50;56.60;;;;;;5003647;28;20037;-71
2022/01/09 08:56:07;;;;;;;7.38;2.38;;;17.50;56.60;;;;;;4995384;28;20072;-70
2022/01/09 08:58:32;;;;;;;8.15;2.55;;;17.50;56.70;;;;;;4999361;28;20126;-69
2022/01/09 09:00:58;;;;;;;6.20;2.78;;;17.50;56.60;;;;;;5002722;28;20026;-69
2022/01/09 09:03:24;;;;;;;6.30;2.67;;;17.40;56.60;;;;;;5002774;28;20050;-68
2022/01/09 09:05:49;;;;;;;8.30;3.40;;;17.50;56.60;;;;;;5003856;28;20040;-70
2022/01/09 09:08:15;;;;;;;9.50;3.00;;;17.50;56.60;;;;;;5011954;28;20048;-70
2022/01/09 09:10:40;;;;;;;8.02;3.13;;;17.50;56.50;;;;;;4999607;28;20358;-70
2022/01/09 09:13:06;;;;;;;8.32;3.22;;;17.50;56.60;;;;;;5003030;28;21300;-70
2022/01/09 09:15:31;;;;;;;11.82;4.65;;;17.40;56.50;;;;;;4996190;28;20549;-70
2022/01/09 09:17:57;;;;;;;13.07;4.88;;;17.40;56.60;;;;;;5008398;28;20037;-70
2022/01/09 09:20:22;;;;;;;12.80;4.97;;;17.40;56.70;;;;;;4991677;28;20030;-70
2022/01/09 09:22:48;;;;;;;18.00;6.18;;;17.40;56.70;;;;;;4999853;28;20034;-69
2022/01/09 09:25:14;;;;;;;20.70;6.10;;;17.40;56.60;;;;;;4984826;28;20046;-69
2022/01/09 09:27:39;;;;;;;14.32;5.60;;;17.40;56.60;;;;;;4987002;28;20061;-69
2022/01/09 09:30:05;;;;;;;12.90;5.50;;;17.40;56.60;;;;;;5002643;28;20022;-68
2022/01/09 09:32:31;;;;;;;79.93;25.60;;;17.30;56.60;;;;;;4993620;28;20397;-67
2022/01/09 09:34:56;;;;;;;78.45;32.20;;;17.30;56.80;;;;;;4999993;28;20039;-69
2022/01/09 09:37:22;;;;;;;93.70;33.90;;;17.40;57.10;;;;;;5002731;28;20041;-69
2022/01/09 09:39:51;;;;;;;101.00;40.00;;;17.40;57.10;;;;;;5010530;28;20038;-71
2022/01/09 09:42:17;;;;;;;107.45;41.88;;;17.40;57.30;;;;;;5004453;28;20095;-67
2022/01/09 09:44:42;;;;;;;107.40;41.53;;;17.40;57.40;;;;;;5008029;28;20037;-69
2022/01/09 09:47:07;;;;;;;101.75;38.25;;;17.40;57.50;;;;;;4992563;28;20033;-69
2022/01/09 09:49:33;;;;;;;102.82;39.08;;;17.40;57.60;;;;;;5006654;28;20330;-70
2022/01/09 09:51:58;;;;;;;96.07;38.17;;;17.30;57.60;;;;;;4995361;28;20041;-70
2022/01/09 09:54:25;;;;;;;90.90;36.80;;;17.40;57.60;;;;;;5001504;28;20053;-71
2022/01/09 09:56:52;;;;;;;84.60;34.45;;;17.40;57.60;;;;;;4998882;28;20031;-70
2022/01/09 09:59:24;;;;;;;88.10;35.58;;;17.30;57.40;;;;;;4990935;28;20033;-70
2022/01/09 10:01:50;;;;;;;93.07;34.05;;;17.30;57.40;;;;;;4995119;28;20050;-70
2022/01/09 10:04:15;;;;;;;89.18;32.03;;;17.30;57.50;;;;;;4986506;28;20054;-70
2022/01/09 10:06:45;;;;;;;70.72;30.95;;;17.30;57.40;;;;;;4989299;28;20648;-70
2022/01/09 10:09:19;;;;;;;72.95;31.27;;;17.30;57.40;;;;;;5001106;28;20753;-70
2022/01/09 10:11:46;;;;;;;78.45;31.40;;;17.20;57.30;;;;;;4994732;28;20042;-69
2022/01/09 10:14:23;;;;;;;72.65;30.25;;;17.20;57.20;;;;;;4993982;28;20042;-70
2022/01/09 10:17:13;;;;;;;72.47;28.13;;;17.20;57.10;;;;;;5002118;28;20037;-70
2022/01/09 10:19:54;;;;;;;71.63;29.60;;;17.30;57.30;;;;;;5004223;28;20025;-70
2022/01/09 10:22:30;;;;;;;77.82;32.83;;;17.30;57.40;;;;;;4993212;28;20030;-69
2022/01/09 10:24:56;;;;;;;74.85;31.10;;;17.30;58.20;;;;;;4987127;28;20034;-70
2022/01/09 10:27:32;;;;;;;95.07;37.42;;;17.30;58.50;;;;;;4982426;28;20064;-69
2022/01/09 10:29:57;;;;;;;320.60;137.10;;;17.30;58.90;;;;;;4995765;28;20046;-69
2022/01/09 10:32:27;;;;;;;758.20;370.63;;;17.30;58.90;;;;;;4981202;28;20022;-69
2022/01/09 10:35:09;;;;;;;897.83;458.33;;;17.30;58.80;;;;;;5004556;28;20025;-69
2022/01/09 10:37:35;;;;;;;966.92;495.08;;;17.30;58.70;;;;;;4997005;28;20030;-69
2022/01/09 10:40:01;;;;;;;1020.05;512.20;;;17.30;58.80;;;;;;5006914;28;20032;-66
2022/01/09 10:42:27;;;;;;;984.90;500.38;;;17.30;58.90;;;;;;5003536;28;20108;-68
2022/01/09 10:44:52;;;;;;;949.30;480.00;;;17.30;59.00;;;;;;4998791;28;20026;-69
2022/01/09 10:47:18;;;;;;;856.67;440.05;;;17.30;58.90;;;;;;5000838;28;20022;-69
2022/01/09 10:49:50;;;;;;;864.95;447.52;;;17.30;58.70;;;;;;4997815;28;20142;-68
2022/01/09 10:52:21;;;;;;;747.88;375.98;;;17.20;58.60;;;;;;4997162;28;20030;-69
2022/01/09 10:54:47;;;;;;;767.42;388.88;;;17.20;58.50;;;;;;4995183;28;20061;-68
2022/01/09 10:57:21;;;;;;;674.15;345.33;;;17.20;58.50;;;;;;4993359;28;20112;-69
2022/01/09 10:59:47;;;;;;;679.47;342.92;;;17.20;58.30;;;;;;5009728;28;20034;-68
2022/01/09 11:02:12;;;;;;;647.45;333.95;;;17.10;58.20;;;;;;4991741;28;20050;-71
2022/01/09 11:04:42;;;;;;;579.63;281.15;;;17.10;58.20;;;;;;4992333;28;20096;-72
2022/01/09 11:07:08;;;;;;;495.92;246.07;;;17.10;58.40;;;;;;4982071;28;20053;-73
2022/01/09 11:09:33;;;;;;;512.95;251.20;;;17.10;58.50;;;;;;5001766;28;20042;-72
2022/01/09 11:11:59;;;;;;;491.27;233.23;;;17.10;58.60;;;;;;4984081;28;20069;-74
2022/01/09 11:14:26;;;;;;;463.90;209.07;;;17.10;58.70;;;;;;5008512;28;20033;-70
2022/01/09 11:16:53;;;;;;;427.73;198.05;;;17.10;58.70;;;;;;4995335;28;20027;-72
2022/01/09 11:19:19;;;;;;;397.23;189.15;;;17.10;58.70;;;;;;5003635;28;20036;-73
2022/01/09 11:21:47;;;;;;;366.23;168.18;;;17.20;58.80;;;;;;4996156;28;20034;-72
2022/01/09 11:24:18;;;;;;;320.20;152.15;;;17.20;59.50;;;;;;5004096;28;20026;-73
2022/01/09 11:27:03;;;;;;;336.05;146.95;;;17.20;59.00;;;;;;4992183;28;20041;-72
2022/01/09 11:30:11;;;;;;;300.27;141.07;;;17.20;58.90;;;;;;4997532;28;20022;-71
2022/01/09 11:33:04;;;;;;;283.30;127.57;;;17.30;58.80;;;;;;4971825;28;20509;-73
2022/01/09 11:35:46;;;;;;;266.00;121.75;;;17.40;59.00;;;;;;4990584;28;20038;-71
2022/01/09 11:38:14;;;;;;;256.25;118.70;;;17.40;58.90;;;;;;4986396;28;20038;-71
2022/01/09 11:40:40;;;;;;;249.85;115.15;;;17.40;58.60;;;;;;4997390;28;20034;-73
2022/01/09 11:43:13;;;;;;;243.82;111.13;;;17.50;58.40;;;;;;4990439;28;20041;-73
2022/01/09 11:45:39;;;;;;;226.82;105.68;;;17.50;58.40;;;;;;4999965;28;20512;-70
2022/01/09 11:48:06;;;;;;;222.27;101.70;;;17.50;58.30;;;;;;4994049;28;20464;-69
2022/01/09 11:50:31;;;;;;;203.00;97.25;;;17.60;58.40;;;;;;4994219;28;20034;-70
2022/01/09 11:52:58;;;;;;;212.63;99.90;;;17.50;58.40;;;;;;4993010;28;20038;-68
2022/01/09 11:55:35;;;;;;;213.25;89.82;;;17.50;58.40;;;;;;4998701;28;20038;-70
2022/01/09 11:58:03;;;;;;;178.02;80.45;;;17.50;58.30;;;;;;4990993;28;20042;-70
2022/01/09 12:00:39;;;;;;;169.15;76.65;;;17.50;58.30;;;;;;4998950;28;20030;-69
2022/01/09 12:03:26;;;;;;;171.68;73.90;;;17.50;58.40;;;;;;4996746;28;20034;-70
2022/01/09 12:06:12;;;;;;;163.90;72.00;;;17.50;58.30;;;;;;5000264;28;20069;-69
2022/01/09 12:09:00;;;;;;;140.60;65.78;;;17.50;58.30;;;;;;5001062;28;20117;-69
2022/01/09 12:12:11;;;;;;;145.20;64.63;;;17.50;58.30;;;;;;5000976;28;20034;-71
2022/01/09 12:14:53;;;;;;;130.88;63.72;;;17.50;58.30;;;;;;4984422;28;20096;-68
2022/01/09 12:17:22;;;;;;;131.65;60.85;;;17.50;58.30;;;;;;5008313;28;20105;-72
2022/01/09 12:19:54;;;;;;;132.68;60.33;;;17.50;58.30;;;;;;4997367;28;20054;-69
2022/01/09 12:22:40;;;;;;;123.75;58.97;;;17.50;58.20;;;;;;5000778;28;20040;-70
2022/01/09 12:25:24;;;;;;;126.07;61.95;;;17.50;58.00;;;;;;4989226;28;20034;-69
2022/01/09 12:27:58;;;;;;;124.07;57.03;;;17.50;58.00;;;;;;5006259;28;20593;-69
2022/01/09 12:30:33;;;;;;;121.50;54.97;;;17.50;58.10;;;;;;4993990;28;20034;-70
2022/01/09 12:33:05;;;;;;;130.73;57.55;;;17.50;58.30;;;;;;4986502;28;20041;-68
2022/01/09 12:35:30;;;;;;;120.63;52.08;;;17.50;58.40;;;;;;4994178;28;20030;-68
2022/01/09 12:37:58;;;;;;;117.88;50.70;;;17.60;58.40;;;;;;4984687;28;20373;-68